VTPM

Mae Sot Airport

Thailand
TAF VTPM 210500Z 2106/2206 24005KT 9999 BKN035 TEMPO 2108/2115 VRB15G25KT 5000 TSRA FEW025CB BKN030
Issued Valid From Valid To
Jun-21 @ 05:00 UTC
(5 hours ago)
Jun-21 @ 06:00 UTC
(4 hours ago)
Jun-22 @ 06:00 UTC
(in 20 hours)
Jun-21 @ 06:00 to Jun-22 @ 06:00
TAF VTPM 210500Z 2106/2206 24005KT 9999 BKN035
Wind Visibility Clouds
240° at 5 knots 10,000+ meters
  • Broken at 3,500' AGL
Temporary Jun-21 @ 08:00 to Jun-21 @ 15:00
TEMPO 2108/2115 VRB15G25KT 5000 TSRA FEW025CB BKN030
Wind Visibility Clouds Conditions
Variable at 15 knots
 Gusting to 25 knots
5,005 meters
  • Few at 2,500' AGL
  • Broken at 3,000' AGL
  • Thunderstorm
  • Rain
TAF VTPM 210500Z 2106/2206 24005KT 9999 BKN035 TEMPO 2108/2115 VRB15G25KT 5000 TSRA FEW025CB BKN030
Issued Jun-21 @ 05:00 UTC
(5 hours ago)
Valid From Jun-21 @ 06:00 UTC
(4 hours ago)
Valid To Jun-22 @ 06:00 UTC
(in 20 hours)
Jun-21 @ 06:00 - Jun-22 @ 06:00
Wind Visibility
240° at 5 knots 10,000+ meters
Clouds
  • Broken at 3,500' AGL
Temporary Jun-21 @ 08:00 - Jun-21 @ 15:00
Wind Visibility
Variable at 15 knots
 Gusting to 25 knots
5,005 meters
Clouds
  • Few at 2,500' AGL
  • Broken at 3,000' AGL
Conditions
  • Thunderstorm
  • Rain